createdAt,value
2023-05-05T00:02:12.673Z,3.28
2023-05-05T00:04:39.302Z,3.33
2023-05-05T00:07:05.912Z,3.48
2023-05-05T00:09:32.518Z,3.89
2023-05-05T00:11:59.138Z,4.45
2023-05-05T00:14:25.747Z,3.79
2023-05-05T00:16:52.442Z,3.33
2023-05-05T00:19:19.092Z,2.89
2023-05-05T00:21:45.679Z,3.08
2023-05-05T00:24:12.284Z,3.56
2023-05-05T00:26:38.952Z,3.97
2023-05-05T00:29:05.610Z,3.60
2023-05-05T00:31:32.382Z,3.03
2023-05-05T00:33:59.084Z,3.25
2023-05-05T00:36:25.745Z,3.08
2023-05-05T00:38:52.348Z,3.36
2023-05-05T00:41:18.995Z,2.85
2023-05-05T00:43:45.693Z,2.92
2023-05-05T00:46:19.380Z,3.58
2023-05-05T00:48:46.031Z,3.47
2023-05-05T00:51:13.621Z,3.25
2023-05-05T00:53:40.264Z,3.19
2023-05-05T00:56:06.854Z,3.42
2023-05-05T00:58:33.450Z,3.10
2023-05-05T01:01:00.143Z,2.83
2023-05-05T01:03:26.955Z,3.11
2023-05-05T01:06:22.599Z,3.05
2023-05-05T01:09:10.425Z,3.01
2023-05-05T01:12:00.062Z,3.13
2023-05-05T01:14:53.431Z,3.06
2023-05-05T01:17:21.855Z,3.12
2023-05-05T01:19:54.513Z,3.18
2023-05-05T01:22:23.935Z,3.25
2023-05-05T01:25:22.817Z,3.05
2023-05-05T01:28:19.300Z,3.06
2023-05-05T01:31:00.895Z,3.18
2023-05-05T01:33:28.805Z,3.12
2023-05-05T01:35:56.175Z,3.18
2023-05-05T01:38:24.994Z,3.24
2023-05-05T01:41:03.579Z,3.40
2023-05-05T01:43:30.930Z,3.35
2023-05-05T01:45:57.735Z,3.06
2023-05-05T01:48:24.465Z,3.08
2023-05-05T01:50:51.121Z,3.37
2023-05-05T01:53:17.804Z,3.33
2023-05-05T01:55:44.529Z,3.19
2023-05-05T01:58:11.165Z,3.14
2023-05-05T02:00:37.828Z,2.75
2023-05-05T02:03:04.628Z,3.02
2023-05-05T02:05:31.516Z,2.86
2023-05-05T02:07:58.571Z,2.83
2023-05-05T02:10:25.461Z,3.19
2023-05-05T02:12:52.299Z,2.75
2023-05-05T02:15:18.969Z,2.92
2023-05-05T02:17:45.620Z,2.88
2023-05-05T02:20:12.846Z,2.88
2023-05-05T02:22:39.908Z,2.93
2023-05-05T02:25:06.934Z,2.84
2023-05-05T02:27:35.072Z,2.76
2023-05-05T02:30:07.167Z,3.02
2023-05-05T02:32:35.244Z,3.05
2023-05-05T02:35:06.553Z,2.79
2023-05-05T02:37:33.208Z,3.01
2023-05-05T02:40:05.176Z,2.93
2023-05-05T02:42:39.937Z,3.03
2023-05-05T02:45:16.354Z,3.30
2023-05-05T02:47:43.049Z,3.02
2023-05-05T02:50:10.823Z,2.90
2023-05-05T02:52:37.655Z,2.86
2023-05-05T02:55:04.529Z,3.04
2023-05-05T02:57:36.280Z,3.26
2023-05-05T03:00:29.539Z,2.91
2023-05-05T03:02:59.075Z,3.24
2023-05-05T03:05:31.751Z,3.20
2023-05-05T03:08:09.951Z,3.30
2023-05-05T03:11:03.293Z,3.21
2023-05-05T03:13:29.906Z,3.23
2023-05-05T03:15:56.556Z,3.21
2023-05-05T03:18:23.193Z,3.07
2023-05-05T03:20:49.844Z,2.99
2023-05-05T03:23:16.456Z,3.14
2023-05-05T03:25:47.065Z,3.01
2023-05-05T03:28:14.332Z,3.01
2023-05-05T03:30:41.554Z,3.19
2023-05-05T03:33:11.356Z,3.07
2023-05-05T03:35:38.044Z,3.29
2023-05-05T03:38:04.758Z,3.27
2023-05-05T03:40:42.986Z,3.45
2023-05-05T03:43:10.017Z,3.18
2023-05-05T03:45:36.674Z,2.92
2023-05-05T03:48:03.446Z,3.36
2023-05-05T03:50:30.146Z,3.30
2023-05-05T03:52:56.823Z,3.17
2023-05-05T03:55:23.493Z,3.31
2023-05-05T03:57:50.105Z,2.99
2023-05-05T04:00:18.266Z,3.18
2023-05-05T04:02:45.197Z,3.13
2023-05-05T04:05:11.894Z,3.10
2023-05-05T04:07:38.988Z,3.21
2023-05-05T04:10:06.824Z,3.49
2023-05-05T04:12:34.646Z,3.63
2023-05-05T04:15:01.380Z,3.35
2023-05-05T04:17:28.091Z,3.43
2023-05-05T04:19:54.885Z,3.15
2023-05-05T04:22:21.713Z,3.33
2023-05-05T04:24:48.407Z,3.34
2023-05-05T04:27:15.021Z,3.43
2023-05-05T04:29:41.677Z,3.11
2023-05-05T04:32:08.318Z,3.23
2023-05-05T04:34:35.387Z,3.35
2023-05-05T04:37:02.212Z,3.10
2023-05-05T04:39:28.952Z,3.32
2023-05-05T04:41:55.537Z,3.11
2023-05-05T04:44:22.174Z,3.27
2023-05-05T04:46:48.865Z,3.17
2023-05-05T04:49:15.531Z,3.37
2023-05-05T04:51:42.442Z,3.40
2023-05-05T04:54:10.400Z,3.26
2023-05-05T04:56:37.819Z,2.86
2023-05-05T04:59:04.473Z,3.22
2023-05-05T05:01:31.120Z,3.43
2023-05-05T05:03:59.021Z,3.29
2023-05-05T05:06:25.754Z,3.37
2023-05-05T05:08:52.408Z,3.52
2023-05-05T05:11:19.093Z,3.58
2023-05-05T05:13:45.767Z,3.36
2023-05-05T05:16:12.456Z,3.24
2023-05-05T05:18:39.058Z,3.42
2023-05-05T05:21:05.740Z,3.10
2023-05-05T05:23:32.340Z,3.51
2023-05-05T05:25:59.034Z,3.30
2023-05-05T05:28:25.743Z,3.22
2023-05-05T05:30:53.412Z,3.21
2023-05-05T05:33:20.040Z,3.39
2023-05-05T05:35:47.950Z,3.63
2023-05-05T05:38:15.359Z,3.30
2023-05-05T05:40:42.248Z,3.18
2023-05-05T05:43:08.935Z,3.40
2023-05-05T05:45:36.013Z,3.37
2023-05-05T05:48:02.767Z,3.33
2023-05-05T05:50:29.767Z,3.27
2023-05-05T05:52:56.424Z,3.41
2023-05-05T05:55:24.495Z,3.82
2023-05-05T05:57:52.280Z,3.59
2023-05-05T06:00:18.977Z,3.85
2023-05-05T06:02:45.732Z,3.81
2023-05-05T06:05:12.747Z,3.71
2023-05-05T06:07:40.346Z,3.96
2023-05-05T06:10:22.798Z,4.04
2023-05-05T06:12:52.941Z,3.65
2023-05-05T06:15:19.661Z,3.65
2023-05-05T06:17:46.401Z,3.76
2023-05-05T06:20:13.319Z,3.58
2023-05-05T06:22:40.073Z,3.46
2023-05-05T06:25:07.095Z,3.45
2023-05-05T06:27:33.688Z,3.70
2023-05-05T06:30:00.312Z,3.65
2023-05-05T06:32:26.937Z,3.50
2023-05-05T06:34:53.543Z,3.65
2023-05-05T06:37:20.143Z,3.71
2023-05-05T06:39:46.862Z,3.79
2023-05-05T06:42:16.312Z,3.90
2023-05-05T06:44:42.980Z,3.46
2023-05-05T06:47:09.645Z,3.57
2023-05-05T06:49:36.285Z,3.44
2023-05-05T06:52:02.902Z,3.36
2023-05-05T06:54:29.524Z,3.38
2023-05-05T06:56:58.100Z,3.12
2023-05-05T06:59:26.423Z,3.18
2023-05-05T07:01:53.041Z,3.39
2023-05-05T07:04:19.708Z,3.31
2023-05-05T07:06:46.399Z,2.98
2023-05-05T07:09:14.770Z,3.54
2023-05-05T07:11:42.361Z,3.34
2023-05-05T07:14:09.064Z,3.36
2023-05-05T07:16:36.149Z,3.59
2023-05-05T07:19:03.002Z,3.99
2023-05-05T07:21:29.645Z,3.28
2023-05-05T07:23:56.253Z,3.30
2023-05-05T07:26:22.890Z,3.47
2023-05-05T07:28:49.500Z,3.14
2023-05-05T07:31:16.155Z,3.31
2023-05-05T07:33:42.821Z,3.32
2023-05-05T07:36:09.525Z,3.25
2023-05-05T07:38:36.125Z,3.27
2023-05-05T07:41:02.921Z,3.21
2023-05-05T07:43:29.554Z,3.21
2023-05-05T07:45:56.260Z,3.58
2023-05-05T07:48:22.888Z,3.40
2023-05-05T07:50:49.597Z,3.33
2023-05-05T07:53:16.222Z,3.37
2023-05-05T07:55:42.848Z,3.47
2023-05-05T07:58:09.626Z,3.48
2023-05-05T08:00:36.275Z,3.41
2023-05-05T08:03:04.347Z,3.37
2023-05-05T08:05:31.090Z,3.36
2023-05-05T08:07:57.725Z,3.44
2023-05-05T08:10:24.401Z,3.30
2023-05-05T08:12:51.138Z,3.36
2023-05-05T08:15:17.840Z,3.67
2023-05-05T08:17:48.674Z,3.70
2023-05-05T08:20:16.187Z,3.51
2023-05-05T08:22:42.841Z,3.81
2023-05-05T08:25:09.801Z,4.39
2023-05-05T08:27:37.627Z,3.82
2023-05-05T08:30:04.781Z,3.82
2023-05-05T08:32:31.667Z,3.84
2023-05-05T08:34:58.303Z,3.84
2023-05-05T08:37:24.948Z,3.58
2023-05-05T08:39:51.629Z,3.54
2023-05-05T08:42:32.868Z,3.76
2023-05-05T08:45:03.530Z,3.68
2023-05-05T08:47:30.197Z,3.50
2023-05-05T08:49:56.860Z,3.62
2023-05-05T08:52:23.819Z,3.57
2023-05-05T08:54:51.329Z,3.70
2023-05-05T08:57:21.448Z,3.62
2023-05-05T08:59:48.289Z,3.64
2023-05-05T09:02:15.077Z,3.53
2023-05-05T09:04:41.757Z,4.09
2023-05-05T09:07:08.895Z,3.69
2023-05-05T09:09:35.539Z,4.21
2023-05-05T09:12:02.147Z,3.54
2023-05-05T09:14:28.835Z,3.76
2023-05-05T09:16:55.466Z,3.64
2023-05-05T09:19:22.179Z,3.70
2023-05-05T09:21:48.791Z,3.59
2023-05-05T09:24:15.488Z,3.51
2023-05-05T09:26:43.613Z,3.67
2023-05-05T09:29:10.270Z,3.39
2023-05-05T09:31:37.037Z,3.26
2023-05-05T09:34:16.106Z,3.26
2023-05-05T09:36:43.325Z,3.39
2023-05-05T09:39:10.104Z,3.04
2023-05-05T09:41:40.920Z,3.45
2023-05-05T09:44:07.759Z,3.32
2023-05-05T09:46:34.593Z,3.13
2023-05-05T09:49:19.567Z,2.66
2023-05-05T09:51:46.651Z,2.46
2023-05-05T09:54:28.117Z,2.39
2023-05-05T09:56:57.776Z,2.50
2023-05-05T09:59:24.581Z,2.34
2023-05-05T10:01:51.518Z,2.35
2023-05-05T10:04:27.941Z,2.42
2023-05-05T10:06:58.125Z,2.55
2023-05-05T10:09:25.356Z,2.41
2023-05-05T10:11:51.980Z,2.28
2023-05-05T10:14:18.684Z,2.54
2023-05-05T10:16:49.564Z,2.49
2023-05-05T10:19:18.521Z,2.44
2023-05-05T10:21:52.628Z,2.62
2023-05-05T10:24:42.760Z,2.39
2023-05-05T10:27:18.467Z,2.26
2023-05-05T10:29:50.523Z,2.62
2023-05-05T10:32:51.218Z,3.08
2023-05-05T10:35:14.006Z,2.82
2023-05-05T10:37:40.697Z,2.84
2023-05-05T10:40:08.857Z,2.37
2023-05-05T10:42:37.625Z,2.16
2023-05-05T10:45:05.117Z,2.43
2023-05-05T10:47:31.857Z,2.29
2023-05-05T10:50:29.684Z,2.98
2023-05-05T10:53:41.620Z,2.51
2023-05-05T10:56:18.086Z,2.77
2023-05-05T10:58:59.108Z,2.59
2023-05-05T11:01:33.421Z,2.18
2023-05-05T11:04:19.444Z,2.02
2023-05-05T11:07:14.731Z,2.03
2023-05-05T11:09:57.678Z,2.08
2023-05-05T11:12:24.298Z,2.06
2023-05-05T11:15:27.978Z,2.14
2023-05-05T11:17:55.214Z,2.21
2023-05-05T11:20:36.848Z,2.19
2023-05-05T11:23:03.456Z,2.38
2023-05-05T11:25:36.453Z,2.39
2023-05-05T11:28:17.639Z,2.12
2023-05-05T11:30:59.815Z,2.34
2023-05-05T11:33:36.479Z,2.06
2023-05-05T11:36:13.318Z,1.94
2023-05-05T11:38:45.561Z,2.14
2023-05-05T11:41:30.354Z,1.89
2023-05-05T11:44:10.012Z,1.86
2023-05-05T11:46:37.022Z,1.93
2023-05-05T11:49:03.801Z,1.92
2023-05-05T11:51:30.428Z,1.82
2023-05-05T11:53:58.978Z,1.81
2023-05-05T11:56:25.958Z,1.81
2023-05-05T11:59:10.973Z,1.70
2023-05-05T12:01:40.935Z,1.79
2023-05-05T12:04:11.345Z,2.04
2023-05-05T12:06:38.189Z,1.94
2023-05-05T12:09:06.266Z,1.73
2023-05-05T12:11:32.875Z,1.96
2023-05-05T12:14:11.567Z,2.26
2023-05-05T12:16:38.209Z,2.12
2023-05-05T12:19:05.758Z,2.20
2023-05-05T12:21:32.637Z,2.06
2023-05-05T12:23:59.632Z,1.88
2023-05-05T12:26:33.619Z,2.15
2023-05-05T12:29:00.569Z,1.81
2023-05-05T12:31:34.227Z,1.78
2023-05-05T12:34:00.893Z,1.84
2023-05-05T12:36:28.759Z,1.72
2023-05-05T12:38:57.326Z,1.63
2023-05-05T12:41:23.937Z,1.82
2023-05-05T12:44:00.263Z,2.13
2023-05-05T12:46:27.284Z,1.98
2023-05-05T12:49:06.616Z,1.94
2023-05-05T12:51:36.478Z,2.08
2023-05-05T12:54:07.470Z,2.03
2023-05-05T12:56:41.578Z,2.53
2023-05-05T12:59:09.267Z,2.67
2023-05-05T13:01:36.758Z,2.82
2023-05-05T13:04:13.425Z,2.82
2023-05-05T13:06:40.850Z,3.07
2023-05-05T13:09:07.652Z,3.01
2023-05-05T13:11:38.122Z,3.06
2023-05-05T13:14:05.157Z,3.39
2023-05-05T13:16:32.538Z,2.94
2023-05-05T13:18:59.179Z,2.77
2023-05-05T13:21:25.835Z,3.01
2023-05-05T13:23:52.481Z,2.69
2023-05-05T13:26:19.156Z,2.52
2023-05-05T13:28:45.844Z,2.53
2023-05-05T13:31:12.501Z,2.73
2023-05-05T13:33:39.179Z,2.60
2023-05-05T13:36:06.025Z,2.51
2023-05-05T13:38:32.739Z,2.41
2023-05-05T13:40:59.392Z,2.34
2023-05-05T13:43:26.089Z,2.17
2023-05-05T13:45:52.699Z,2.74
2023-05-05T13:48:19.723Z,2.07
2023-05-05T13:50:46.420Z,2.37
2023-05-05T13:53:13.307Z,2.22
2023-05-05T13:55:40.084Z,2.38
2023-05-05T13:58:06.930Z,2.45
2023-05-05T14:00:33.676Z,2.33
2023-05-05T14:03:00.394Z,2.18
2023-05-05T14:05:27.065Z,2.60
2023-05-05T14:07:53.757Z,2.63
2023-05-05T14:10:20.391Z,2.35
2023-05-05T14:12:47.037Z,2.24
2023-05-05T14:15:13.743Z,2.24
2023-05-05T14:17:40.458Z,2.64
2023-05-05T14:20:07.549Z,2.47
2023-05-05T14:22:34.217Z,2.58
2023-05-05T14:25:00.883Z,2.18
2023-05-05T14:27:27.581Z,2.30
2023-05-05T14:29:54.318Z,2.47
2023-05-05T14:32:20.980Z,2.27
2023-05-05T14:34:50.224Z,2.47
2023-05-05T14:37:17.113Z,2.12
2023-05-05T14:39:43.774Z,2.14
2023-05-05T14:42:10.485Z,2.20
2023-05-05T14:44:37.156Z,2.21
2023-05-05T14:47:03.789Z,2.16
2023-05-05T14:49:30.459Z,2.23
2023-05-05T14:51:57.069Z,2.08
2023-05-05T14:54:28.263Z,2.33
2023-05-05T14:56:55.986Z,3.30
2023-05-05T14:59:22.649Z,2.41
2023-05-05T15:01:49.321Z,2.28
2023-05-05T15:04:15.982Z,2.09
2023-05-05T15:06:42.644Z,2.41
2023-05-05T15:09:09.289Z,2.11
2023-05-05T15:11:35.997Z,2.12
2023-05-05T15:14:02.651Z,2.04
2023-05-05T15:16:29.361Z,1.97
2023-05-05T15:18:56.015Z,1.83
2023-05-05T15:21:22.667Z,1.94
2023-05-05T15:23:49.353Z,1.92
2023-05-05T15:26:16.052Z,1.92
2023-05-05T15:28:42.718Z,1.92
2023-05-05T15:31:09.384Z,1.86
2023-05-05T15:33:36.005Z,1.80
2023-05-05T15:36:02.666Z,1.72
2023-05-05T15:38:29.641Z,1.74
2023-05-05T15:40:56.293Z,1.97
2023-05-05T15:43:22.949Z,1.82
2023-05-05T15:45:49.612Z,2.06
2023-05-05T15:48:16.255Z,1.95
2023-05-05T15:50:42.912Z,1.97
2023-05-05T15:53:09.601Z,1.73
2023-05-05T15:55:36.289Z,2.15
2023-05-05T15:58:02.943Z,1.86
2023-05-05T16:00:29.577Z,1.99
2023-05-05T16:02:56.241Z,1.95
2023-05-05T16:05:23.251Z,1.92
2023-05-05T16:07:50.158Z,2.38
2023-05-05T16:10:16.826Z,2.09
2023-05-05T16:12:43.603Z,1.82
2023-05-05T16:15:11.010Z,2.32
2023-05-05T16:17:38.036Z,2.25
2023-05-05T16:20:05.078Z,2.27
2023-05-05T16:22:31.728Z,2.14
2023-05-05T16:24:58.457Z,2.29
2023-05-05T16:27:25.103Z,1.91
2023-05-05T16:29:51.746Z,2.13
2023-05-05T16:32:18.431Z,2.07
2023-05-05T16:34:45.225Z,2.15
2023-05-05T16:37:11.883Z,2.19
2023-05-05T16:39:38.684Z,2.09
2023-05-05T16:42:05.538Z,2.16
2023-05-05T16:44:32.178Z,2.23
2023-05-05T16:46:58.834Z,2.15
2023-05-05T16:49:25.433Z,2.22
2023-05-05T16:51:52.062Z,2.30
2023-05-05T16:54:18.782Z,2.29
2023-05-05T16:56:46.512Z,2.44
2023-05-05T16:59:13.213Z,2.39
2023-05-05T17:01:39.925Z,1.99
2023-05-05T17:04:06.565Z,2.43
2023-05-05T17:06:33.273Z,2.58
2023-05-05T17:08:59.963Z,2.49
2023-05-05T17:11:26.621Z,2.27
2023-05-05T17:13:53.314Z,2.40
2023-05-05T17:16:19.972Z,2.31
2023-05-05T17:18:46.598Z,2.11
2023-05-05T17:21:13.212Z,2.45
2023-05-05T17:23:39.846Z,2.43
2023-05-05T17:26:06.446Z,2.45
2023-05-05T17:28:33.044Z,3.02
2023-05-05T17:30:59.705Z,2.74
2023-05-05T17:33:26.343Z,2.86
2023-05-05T17:35:52.971Z,2.90
2023-05-05T17:38:19.627Z,3.10
2023-05-05T17:40:46.257Z,2.79
2023-05-05T17:43:12.882Z,3.13
2023-05-05T17:45:40.532Z,3.03
2023-05-05T17:48:07.285Z,3.26
2023-05-05T17:50:33.995Z,2.78
2023-05-05T17:53:00.687Z,2.86
2023-05-05T17:55:27.408Z,2.64
2023-05-05T17:57:54.000Z,2.73
2023-05-05T18:00:21.113Z,2.60
2023-05-05T18:02:47.935Z,2.90
2023-05-05T18:05:14.633Z,2.84
2023-05-05T18:07:41.317Z,2.91
2023-05-05T18:10:08.508Z,2.49
2023-05-05T18:12:35.187Z,3.17
2023-05-05T18:15:02.919Z,2.54
2023-05-05T18:17:29.730Z,2.79
2023-05-05T18:19:57.803Z,3.28
2023-05-05T18:22:25.204Z,3.67
2023-05-05T18:24:51.825Z,4.34
2023-05-05T18:27:18.485Z,4.01
2023-05-05T18:29:45.135Z,3.38
2023-05-05T18:32:11.780Z,3.75
2023-05-05T18:34:38.480Z,3.21
2023-05-05T18:37:05.102Z,3.11
2023-05-05T18:39:31.740Z,3.55
2023-05-05T18:41:58.402Z,2.86
2023-05-05T18:44:25.053Z,2.67
2023-05-05T18:46:51.821Z,3.01
2023-05-05T18:49:18.517Z,2.90
2023-05-05T18:51:45.247Z,3.02
2023-05-05T18:54:11.875Z,3.02
2023-05-05T18:56:38.551Z,2.82
2023-05-05T18:59:05.219Z,2.87
2023-05-05T19:01:31.894Z,2.46
2023-05-05T19:03:58.544Z,2.47
2023-05-05T19:06:25.226Z,3.19
2023-05-05T19:08:51.851Z,3.07
2023-05-05T19:11:18.499Z,2.81
2023-05-05T19:13:45.274Z,2.53
2023-05-05T19:16:12.091Z,2.51
2023-05-05T19:18:38.915Z,3.38
2023-05-05T19:21:05.511Z,3.03
2023-05-05T19:23:32.266Z,2.54
2023-05-05T19:25:58.860Z,2.84
2023-05-05T19:28:25.452Z,2.83
2023-05-05T19:30:52.260Z,3.16
2023-05-05T19:33:18.910Z,3.41
2023-05-05T19:35:45.585Z,3.22
2023-05-05T19:38:12.274Z,3.39
2023-05-05T19:40:39.045Z,3.94
2023-05-05T19:43:05.667Z,4.12
2023-05-05T19:45:32.311Z,3.77
2023-05-05T19:47:59.648Z,3.57
2023-05-05T19:50:26.302Z,3.38
2023-05-05T19:52:54.571Z,3.25
2023-05-05T19:55:21.321Z,3.46
2023-05-05T19:57:48.103Z,3.45
2023-05-05T20:00:14.911Z,3.76
2023-05-05T20:02:41.678Z,4.13
2023-05-05T20:05:08.741Z,4.27
2023-05-05T20:07:35.365Z,4.59
2023-05-05T20:10:02.128Z,4.39
2023-05-05T20:12:28.810Z,4.09
2023-05-05T20:14:55.425Z,4.11
2023-05-05T20:17:22.151Z,4.15
2023-05-05T20:19:48.895Z,4.26
2023-05-05T20:22:15.605Z,4.42
2023-05-05T20:24:42.264Z,4.54
2023-05-05T20:27:08.991Z,4.52
2023-05-05T20:29:35.706Z,4.10
2023-05-05T20:32:02.414Z,3.94
2023-05-05T20:34:29.037Z,4.35
2023-05-05T20:36:56.386Z,4.38
2023-05-05T20:39:23.121Z,4.11
2023-05-05T20:41:49.848Z,3.68
2023-05-05T20:44:16.469Z,3.88
2023-05-05T20:46:43.365Z,4.18
2023-05-05T20:49:10.192Z,4.42
2023-05-05T20:51:36.940Z,3.61
2023-05-05T20:54:05.104Z,4.06
2023-05-05T20:56:31.927Z,4.70
2023-05-05T20:58:58.857Z,4.62
2023-05-05T21:01:25.612Z,3.46
2023-05-05T21:03:52.315Z,3.20
2023-05-05T21:06:19.021Z,3.46
2023-05-05T21:08:46.446Z,3.48
2023-05-05T21:11:13.105Z,3.10
2023-05-05T21:13:39.738Z,3.57
2023-05-05T21:16:06.389Z,3.63
2023-05-05T21:18:33.085Z,3.15
2023-05-05T21:21:00.156Z,3.45
2023-05-05T21:23:26.805Z,3.75
2023-05-05T21:25:53.453Z,3.06
2023-05-05T21:28:20.095Z,3.42
2023-05-05T21:30:54.912Z,3.46
2023-05-05T21:33:31.631Z,3.16
2023-05-05T21:35:58.274Z,3.44
2023-05-05T21:38:25.039Z,3.82
2023-05-05T21:40:58.014Z,4.11
2023-05-05T21:43:27.882Z,4.07
2023-05-05T21:46:06.972Z,4.24
2023-05-05T21:48:33.811Z,3.46
2023-05-05T21:51:00.533Z,3.93
2023-05-05T21:53:27.378Z,3.80
2023-05-05T21:55:54.041Z,3.97
2023-05-05T21:58:20.717Z,3.52
2023-05-05T22:00:50.418Z,3.59
2023-05-05T22:03:17.377Z,3.53
2023-05-05T22:05:44.133Z,3.71
2023-05-05T22:08:10.866Z,3.90
2023-05-05T22:10:37.519Z,3.79
2023-05-05T22:13:04.284Z,3.75
2023-05-05T22:15:38.879Z,3.88
2023-05-05T22:18:05.738Z,3.89
2023-05-05T22:20:32.371Z,3.78
2023-05-05T22:22:59.030Z,3.99
2023-05-05T22:25:25.658Z,4.04
2023-05-05T22:27:52.419Z,4.01
2023-05-05T22:30:19.091Z,4.33
2023-05-05T22:32:45.790Z,4.36
2023-05-05T22:35:12.533Z,4.05
2023-05-05T22:37:39.187Z,3.75
2023-05-05T22:40:06.405Z,3.23
2023-05-05T22:42:33.067Z,3.29
2023-05-05T22:44:59.760Z,3.59
2023-05-05T22:47:26.435Z,3.60
2023-05-05T22:49:53.174Z,3.82
2023-05-05T22:52:19.895Z,3.96
2023-05-05T22:54:46.534Z,3.52
2023-05-05T22:57:13.176Z,3.81
2023-05-05T22:59:40.145Z,4.17
2023-05-05T23:02:06.853Z,3.95
2023-05-05T23:04:33.547Z,3.88
2023-05-05T23:07:00.268Z,3.71
2023-05-05T23:09:27.010Z,3.64
2023-05-05T23:11:53.643Z,3.70
2023-05-05T23:14:20.341Z,3.26
2023-05-05T23:16:47.036Z,3.38
2023-05-05T23:19:13.745Z,3.93
2023-05-05T23:21:52.027Z,3.83
2023-05-05T23:24:19.790Z,3.79
2023-05-05T23:26:46.469Z,3.90
2023-05-05T23:29:13.164Z,3.73
2023-05-05T23:31:39.886Z,3.99
2023-05-05T23:34:06.552Z,3.87
2023-05-05T23:36:33.199Z,3.79
2023-05-05T23:38:59.880Z,4.03
2023-05-05T23:41:26.503Z,3.90
2023-05-05T23:43:53.113Z,3.95
2023-05-05T23:46:19.792Z,4.06
2023-05-05T23:48:46.417Z,3.78
2023-05-05T23:51:13.134Z,3.95
2023-05-05T23:53:39.780Z,4.07
2023-05-05T23:56:06.896Z,4.17
2023-05-05T23:58:33.541Z,3.69
